Time;durP1;ratioP1;P1;durP2;ratioP2;P2;SDS_P1;SDS_P2;PMS_P1;PMS_P2;Temp;Humidity;BMP_temperature;BMP_pressure;BME280_temperature;BME280_humidity;BME280_pressure;Samples;Min_cycle;Max_cycle;Signal;HPM_P1;HPM_P2
2022/01/18 00:00:15;;;;;;;;;;;7.50;99.90;;;;;;5028346;28;20017;-68
2022/01/18 00:02:42;;;;;;;33.33;7.00;;;;;;;;;;5021328;28;19963;-68
2022/01/18 00:05:14;;;;;;;36.83;7.10;;;7.60;99.90;;;;;;5025156;28;20025;-68
2022/01/18 00:07:41;;;;;;;45.33;7.37;;;7.50;99.90;;;;;;5027136;28;20041;-68
2022/01/18 00:10:07;;;;;;;41.43;8.10;;;7.60;99.90;;;;;;5028090;28;20029;-68
2022/01/18 00:15:29;;;;;;;35.47;8.07;;;7.60;99.90;;;;;;5028183;28;20030;-68
2022/01/18 00:18:07;;;;;;;41.23;8.47;;;;;;;;;;5027784;28;20124;-69
2022/01/18 00:23:10;;;;;;;25.27;6.63;;;7.60;99.90;;;;;;5028194;28;20038;-68
2022/01/18 00:25:41;;;;;;;45.67;9.90;;;7.40;99.90;;;;;;5027480;28;20017;-68
2022/01/18 00:28:07;;;;;;;34.87;8.90;;;7.60;99.90;;;;;;5027956;28;20034;-68
2022/01/18 00:35:45;;;;;;;36.13;10.27;;;7.40;99.90;;;;;;5027194;28;20464;-68
2022/01/18 00:38:46;;;;;;;48.20;12.37;;;7.10;99.90;;;;;;5028487;28;20040;-68
2022/01/18 00:41:03;;;;;;;31.33;9.13;;;;;;;;;;5025585;28;20251;-68
2022/01/18 00:43:28;;;;;;;33.90;10.07;;;7.40;99.90;;;;;;5027408;28;20516;-68
2022/01/18 00:45:54;;;;;;;46.37;11.87;;;7.30;99.90;;;;;;5027825;28;20490;-68
2022/01/18 00:48:19;;;;;;;49.40;11.27;;;7.40;99.90;;;;;;5027182;28;20041;-68
2022/01/18 00:50:45;;;;;;;27.03;10.97;;;7.40;99.90;;;;;;5009316;28;20483;-68
2022/01/18 00:53:15;;;;;;;32.67;12.57;;;;;;;;;;5027832;28;20048;-68
2022/01/18 00:55:52;;;;;;;31.10;9.23;;;;;;;;;;5025765;28;20481;-68
2022/01/18 00:58:18;;;;;;;35.23;11.33;;;7.10;99.90;;;;;;5027466;28;20359;-68
2022/01/18 01:00:43;;;;;;;40.20;13.70;;;7.20;99.90;;;;;;5027110;28;20033;-68
2022/01/18 01:03:09;;;;;;;37.93;12.50;;;7.10;99.90;;;;;;5026594;28;20210;-68
2022/01/18 01:05:35;;;;;;;45.87;14.60;;;;;;;;;;5027000;28;20040;-68
2022/01/18 01:08:01;;;;;;;47.47;13.70;;;;;;;;;;5027398;28;20478;-68
2022/01/18 01:10:27;;;;;;;51.93;16.93;;;7.20;99.90;;;;;;5029593;28;20029;-68
2022/01/18 01:12:54;;;;;;;41.93;12.30;;;7.10;99.90;;;;;;5031267;28;20033;-68
2022/01/18 01:15:21;;;;;;;33.37;12.47;;;7.20;99.90;;;;;;5013785;28;20412;-69
2022/01/18 01:34:37;;;;;;;49.00;15.27;;;;;;;;;;5031151;28;20121;-68
2022/01/18 01:42:16;;;;;;;39.10;14.00;;;7.10;99.90;;;;;;5030804;28;20417;-69
2022/01/18 01:44:47;;;;;;;34.53;12.80;;;7.10;99.90;;;;;;5030048;28;20454;-68
2022/01/18 01:47:20;;;;;;;57.63;15.10;;;7.10;99.90;;;;;;5030313;28;20038;-68
2022/01/18 01:49:51;;;;;;;56.28;16.05;;;7.10;99.90;;;;;;5012102;28;20045;-68
2022/01/18 01:52:21;;;;;;;48.00;17.60;;;7.20;99.90;;;;;;5012789;28;20029;-68
2022/01/18 01:54:46;;;;;;;33.80;13.37;;;7.10;99.90;;;;;;5029891;28;20029;-68
2022/01/18 01:57:12;;;;;;;44.90;13.97;;;7.10;99.90;;;;;;5030670;28;20096;-68
2022/01/18 01:59:37;;;;;;;47.37;15.33;;;7.60;99.90;;;;;;5029606;28;20033;-69
2022/01/18 02:02:04;;;;;;;38.40;13.43;;;6.70;99.90;;;;;;5029958;28;20053;-68
2022/01/18 02:04:30;;;;;;;59.23;17.30;;;7.20;99.90;;;;;;5030017;28;20474;-68
2022/01/18 02:06:55;;;;;;;48.47;16.70;;;7.00;99.90;;;;;;5030273;28;20068;-68
2022/01/18 02:09:21;;;;;;;54.00;17.03;;;;;;;;;;5030895;28;20050;-68
2022/01/18 02:11:47;;;;;;;54.13;15.00;;;7.20;99.90;;;;;;5029868;28;20029;-68
2022/01/18 02:14:18;;;;;;;47.53;15.07;;;7.10;99.90;;;;;;5029983;28;20022;-68
2022/01/18 02:22:14;;;;;;;54.27;17.27;;;;;;;;;;5030585;28;20091;-68
2022/01/18 02:24:39;;;;;;;49.50;16.93;;;7.00;99.90;;;;;;5029454;28;20105;-67
2022/01/18 02:27:05;;;;;;;45.43;16.83;;;7.10;99.90;;;;;;5029844;28;20298;-68
2022/01/18 02:29:31;;;;;;;45.90;15.03;;;7.10;99.90;;;;;;5028962;28;20470;-68
2022/01/18 02:31:56;;;;;;;39.67;14.33;;;7.10;99.90;;;;;;5029862;28;20105;-68
2022/01/18 02:34:23;;;;;;;57.10;16.50;;;;;;;;;;5029608;28;20022;-68
2022/01/18 02:36:50;;;;;;;58.73;17.87;;;7.20;99.90;;;;;;5029410;28;20029;-68
2022/01/18 02:39:22;;;;;;;40.93;13.43;;;7.00;99.90;;;;;;5029863;28;20022;-68
2022/01/18 02:42:08;;;;;;;47.43;16.37;;;7.00;99.90;;;;;;5029321;28;20383;-68
2022/01/18 02:44:35;;;;;;;41.63;15.17;;;7.00;99.90;;;;;;5028842;28;20022;-68
2022/01/18 02:47:01;;;;;;;58.53;16.57;;;7.10;99.90;;;;;;5029455;28;20043;-68
2022/01/18 02:49:28;;;;;;;56.90;18.77;;;7.10;99.90;;;;;;5028825;28;20041;-68
2022/01/18 02:51:55;;;;;;;52.90;17.13;;;7.10;99.90;;;;;;5029576;28;20474;-68
2022/01/18 02:54:21;;;;;;;57.23;19.87;;;6.90;99.90;;;;;;5029648;28;20033;-68
2022/01/18 02:56:55;;;;;;;49.63;17.17;;;7.00;99.90;;;;;;5028925;28;20048;-68
2022/01/18 02:59:34;;;;;;;48.80;16.87;;;7.10;99.90;;;;;;5028699;28;20073;-68
2022/01/18 03:04:47;;;;;;;46.27;18.63;;;7.00;99.90;;;;;;5026593;28;20111;-68
2022/01/18 03:07:14;;;;;;;60.57;18.33;;;7.00;99.90;;;;;;5027243;28;20124;-68
2022/01/18 03:09:40;;;;;;;51.13;18.40;;;;;;;;;;5027586;28;20063;-68
2022/01/18 03:12:07;;;;;;;53.90;18.30;;;7.00;99.90;;;;;;5027715;28;20029;-68
2022/01/18 03:14:34;;;;;;;78.60;22.80;;;6.90;99.90;;;;;;5008645;28;20026;-68
2022/01/18 03:16:59;;;;;;;54.03;18.27;;;6.70;99.90;;;;;;5028055;28;20028;-68
2022/01/18 03:19:25;;;;;;;68.07;20.00;;;6.90;99.90;;;;;;5028657;28;20025;-68
2022/01/18 03:21:55;;;;;;;75.53;19.63;;;7.40;99.90;;;;;;5028522;28;20025;-68
2022/01/18 03:29:34;;;;;;;47.40;17.40;;;6.90;99.90;;;;;;5027209;28;20032;-68
2022/01/18 03:32:00;;;;;;;62.33;19.23;;;6.90;99.90;;;;;;5028154;28;20025;-68
2022/01/18 03:34:26;;;;;;;38.57;16.00;;;;;;;;;;5028292;28;20097;-68
2022/01/18 03:36:52;;;;;;;61.03;18.67;;;6.90;99.90;;;;;;5028509;28;20087;-68
2022/01/18 03:39:18;;;;;;;57.07;17.37;;;6.90;99.90;;;;;;5028561;28;20033;-68
2022/01/18 03:41:43;;;;;;;72.57;20.57;;;7.00;99.90;;;;;;5027393;28;20087;-68
2022/01/18 03:44:09;;;;;;;52.83;17.03;;;;;;;;;;5028317;28;20035;-68
2022/01/18 03:46:36;;;;;;;58.53;16.47;;;6.90;99.90;;;;;;5027414;28;20033;-68
2022/01/18 03:49:05;;;;;;;62.90;18.13;;;7.00;99.90;;;;;;5028023;28;20063;-68
2022/01/18 03:51:31;;;;;;;60.83;15.87;;;;;;;;;;5027530;28;20056;-68
2022/01/18 03:53:57;;;;;;;37.63;12.37;;;;;;;;;;5028212;28;20363;-69
2022/01/18 03:56:23;;;;;;;33.60;10.87;;;;;;;;;;5027534;28;20040;-68
2022/01/18 03:58:48;;;;;;;34.03;12.03;;;7.00;99.90;;;;;;5027284;28;20125;-69
2022/01/18 04:01:14;;;;;;;40.57;9.50;;;;;;;;;;5028375;28;20506;-68
2022/01/18 04:03:40;;;;;;;33.23;9.67;;;7.00;99.90;;;;;;5027461;28;20057;-68
2022/01/18 04:06:05;;;;;;;38.63;8.60;;;7.10;99.90;;;;;;5028351;28;20328;-68
2022/01/18 04:08:31;;;;;;;39.53;9.27;;;6.90;99.90;;;;;;5027724;28;20480;-68
2022/01/18 04:10:56;;;;;;;41.00;9.77;;;7.00;99.90;;;;;;5027188;28;20132;-68
2022/01/18 04:13:22;;;;;;;37.60;9.97;;;;;;;;;;5027826;28;20128;-68
2022/01/18 04:15:48;;;;;;;27.50;9.03;;;;;;;;;;5027099;28;20033;-68
2022/01/18 04:18:26;;;;;;;40.17;9.80;;;;;;;;;;5027965;28;20029;-69
2022/01/18 04:28:49;;;;;;;31.33;8.70;;;7.00;99.90;;;;;;5027350;28;20037;-68
2022/01/18 04:31:15;;;;;;;27.10;9.33;;;7.10;99.90;;;;;;5028306;28;20104;-68
2022/01/18 04:33:41;;;;;;;28.40;8.30;;;;;;;;;;5026822;28;20104;-68
2022/01/18 04:36:07;;;;;;;30.60;8.60;;;7.00;99.90;;;;;;5027271;28;20105;-68
2022/01/18 04:38:34;;;;;;;33.83;9.30;;;7.10;99.90;;;;;;5026988;28;20041;-68
2022/01/18 04:41:06;;;;;;;35.90;9.03;;;7.10;99.90;;;;;;5026629;28;20370;-68
2022/01/18 04:48:58;;;;;;;;;;;8.00;99.90;;;;;;5031457;28;20111;-68
2022/01/18 04:51:24;;;;;;;26.63;8.87;;;7.10;99.90;;;;;;5030154;28;19905;-68
2022/01/18 04:53:54;;;;;;;31.20;9.10;;;6.90;99.90;;;;;;5029920;28;20033;-68
2022/01/18 04:59:15;;;;;;;27.97;7.93;;;7.30;99.90;;;;;;5007055;28;20502;-68
2022/01/18 05:01:42;;;;;;;29.03;8.80;;;6.90;99.90;;;;;;5029380;28;20044;-68
2022/01/18 05:04:08;;;;;;;26.73;8.37;;;6.80;99.90;;;;;;5030362;28;20035;-68
2022/01/18 05:06:34;;;;;;;22.37;7.27;;;;;;;;;;5029509;28;20540;-68
2022/01/18 05:09:07;;;;;;;29.60;7.80;;;6.80;99.90;;;;;;5029425;28;20225;-68
2022/01/18 05:11:38;;;;;;;23.53;7.27;;;;;;;;;;5029688;28;20017;-68
2022/01/18 05:14:20;;;;;;;32.00;9.27;;;;;;;;;;5029826;28;20022;-68
2022/01/18 05:17:06;;;;;;;30.07;8.00;;;;;;;;;;5029267;28;20040;-68
2022/01/18 05:19:58;;;;;;;28.10;7.63;;;7.00;99.90;;;;;;5029327;28;20022;-68
2022/01/18 05:25:08;;;;;;;34.13;9.30;;;6.90;99.90;;;;;;5029400;28;20087;-68
2022/01/18 05:27:33;;;;;;;31.20;7.37;;;7.00;99.90;;;;;;5029228;28;20045;-68
2022/01/18 05:29:59;;;;;;;21.10;7.37;;;7.00;99.90;;;;;;5029607;28;20036;-68
2022/01/18 05:32:24;;;;;;;32.13;8.67;;;6.80;99.90;;;;;;5029285;28;20083;-68
2022/01/18 05:34:50;;;;;;;23.07;7.70;;;6.90;99.90;;;;;;5011573;28;20029;-68
2022/01/18 05:37:16;;;;;;;28.00;7.97;;;7.00;99.90;;;;;;5029904;28;20045;-68
2022/01/18 05:39:42;;;;;;;21.10;7.60;;;;;;;;;;5010702;28;20029;-68
2022/01/18 05:42:08;;;;;;;22.40;6.80;;;6.90;99.90;;;;;;5029682;28;20098;-68
2022/01/18 05:44:34;;;;;;;21.77;8.37;;;;;;;;;;5028908;28;20033;-68
2022/01/18 05:47:00;;;;;;;16.93;6.07;;;6.80;99.90;;;;;;5029029;28;20124;-68
2022/01/18 05:49:25;;;;;;;30.43;8.77;;;6.80;99.90;;;;;;4970467;28;1014007;-68
2022/01/18 05:51:51;;;;;;;20.60;7.97;;;6.80;99.90;;;;;;5028601;28;20057;-68
2022/01/18 05:54:16;;;;;;;15.33;6.20;;;6.80;99.90;;;;;;5030222;28;20069;-68
2022/01/18 05:56:42;;;;;;;23.97;7.17;;;;;;;;;;5029326;28;20036;-68
2022/01/18 05:59:10;;;;;;;27.27;8.43;;;;;;;;;;5030121;28;20025;-68
2022/01/18 06:01:45;;;;;;;22.93;8.87;;;6.90;99.90;;;;;;5029645;28;20022;-68
2022/01/18 06:06:50;;;;;;;45.03;12.50;;;6.90;99.90;;;;;;5030359;28;20035;-68
2022/01/18 06:06:57;;;;;;;35.13;14.37;;;;;;;;;;5028978;28;20025;-68
2022/01/18 06:09:23;;;;;;;47.03;15.70;;;6.80;99.90;;;;;;5029885;28;20033;-68
2022/01/18 06:11:50;;;;;;;36.03;13.67;;;6.70;99.90;;;;;;5029729;28;20044;-68
2022/01/18 06:14:16;;;;;;;32.57;13.73;;;6.70;99.90;;;;;;5030469;28;20160;-67
2022/01/18 06:16:42;;;;;;;45.03;15.03;;;6.70;99.90;;;;;;5029319;28;20029;-68
2022/01/18 06:19:07;;;;;;;48.07;17.77;;;6.60;99.90;;;;;;5029887;28;20032;-68
2022/01/18 06:21:33;;;;;;;45.20;17.33;;;7.10;99.90;;;;;;5029184;28;20490;-68
2022/01/18 06:23:59;;;;;;;33.10;13.67;;;;;;;;;;5011967;28;20021;-68
2022/01/18 06:26:24;;;;;;;49.90;16.43;;;6.50;99.90;;;;;;5029750;28;20051;-68
2022/01/18 06:28:50;;;;;;;47.30;17.57;;;;;;;;;;5029686;28;20041;-67
2022/01/18 06:31:16;;;;;;;36.60;15.10;;;6.50;99.90;;;;;;5030586;28;20095;-68
2022/01/18 06:33:42;;;;;;;61.83;18.77;;;;;;;;;;5028711;28;20458;-68
2022/01/18 06:36:08;;;;;;;49.43;18.77;;;6.50;99.90;;;;;;5029449;28;20033;-68
2022/01/18 06:38:33;;;;;;;46.53;17.53;;;6.60;99.90;;;;;;5029312;28;20033;-68
2022/01/18 06:40:59;;;;;;;45.50;17.03;;;6.50;99.90;;;;;;5029832;28;20045;-68
2022/01/18 06:43:25;;;;;;;44.53;16.80;;;6.30;99.90;;;;;;5029599;28;20024;-68
2022/01/18 06:45:50;;;;;;;64.53;18.87;;;6.40;99.90;;;;;;5029220;28;20018;-68
2022/01/18 06:48:16;;;;;;;36.33;14.43;;;6.50;99.90;;;;;;5029469;28;20064;-68
2022/01/18 06:50:42;;;;;;;58.93;17.67;;;;;;;;;;5028554;28;20034;-68
2022/01/18 06:53:08;;;;;;;58.87;18.27;;;;;;;;;;5029607;28;20060;-69
2022/01/18 06:55:34;;;;;;;43.10;16.50;;;;;;;;;;5029026;28;20397;-68
2022/01/18 06:58:01;;;;;;;54.13;17.40;;;6.30;99.90;;;;;;5029498;28;20155;-68
2022/01/18 07:00:27;;;;;;;66.30;16.77;;;;;;;;;;5011356;28;20387;-69
2022/01/18 07:02:53;;;;;;;53.57;15.87;;;;;;;;;;5025039;28;20041;-68
2022/01/18 07:05:18;;;;;;;55.73;17.10;;;6.40;99.90;;;;;;5028996;28;20096;-69
2022/01/18 07:07:47;;;;;;;49.77;17.40;;;6.30;99.90;;;;;;5027641;28;20034;-69
2022/01/18 07:10:13;;;;;;;49.87;14.70;;;6.80;99.90;;;;;;5029354;28;20466;-69
2022/01/18 07:12:38;;;;;;;50.13;16.77;;;6.10;99.90;;;;;;5028581;28;20052;-69
2022/01/18 07:15:08;;;;;;;64.13;16.10;;;6.40;99.90;;;;;;5028509;28;20021;-69
2022/01/18 07:17:34;;;;;;;53.37;16.63;;;6.40;99.90;;;;;;5027731;28;20094;-69
2022/01/18 07:20:00;;;;;;;54.80;15.30;;;6.40;99.90;;;;;;5028275;28;20035;-69
2022/01/18 07:22:26;;;;;;;41.83;15.27;;;6.30;99.90;;;;;;5028305;28;20025;-69
2022/01/18 07:24:56;;;;;;;47.10;16.07;;;;;;;;;;5028383;28;20072;-69
2022/01/18 07:27:22;;;;;;;54.90;16.33;;;5.70;99.90;;;;;;5028423;28;20033;-68
2022/01/18 07:29:48;;;;;;;42.67;15.20;;;6.30;99.90;;;;;;5028039;28;20083;-68
2022/01/18 07:32:14;;;;;;;33.50;12.33;;;6.40;99.90;;;;;;5028667;28;20328;-68
2022/01/18 07:34:48;;;;;;;26.00;11.43;;;6.50;99.90;;;;;;5027070;28;20048;-68
2022/01/18 07:37:13;;;;;;;;;;;6.20;99.90;;;;;;5043517;22;20487;-72
2022/01/18 07:39:39;;;;;;;46.53;12.33;;;;;;;;;;5008907;28;19913;-73
2022/01/18 07:42:05;;;;;;;35.80;12.87;;;5.80;99.90;;;;;;5009442;28;20220;-72
2022/01/18 07:44:31;;;;;;;33.10;11.57;;;6.20;99.90;;;;;;5009107;28;20030;-72
2022/01/18 07:46:57;;;;;;;31.90;12.17;;;6.40;99.90;;;;;;5009457;28;20390;-72
2022/01/18 07:49:23;;;;;;;29.13;11.70;;;;;;;;;;5008475;28;20026;-73
2022/01/18 07:51:50;;;;;;;39.63;12.07;;;6.20;99.90;;;;;;5009236;28;20033;-73
2022/01/18 07:54:16;;;;;;;25.37;10.90;;;6.20;99.90;;;;;;5017363;28;20022;-73
2022/01/18 07:56:42;;;;;;;24.10;9.17;;;6.30;99.90;;;;;;5023936;28;20034;-72
2022/01/18 07:59:09;;;;;;;31.17;11.50;;;6.20;99.90;;;;;;5029160;28;20124;-73
2022/01/18 08:01:35;;;;;;;40.63;12.20;;;;;;;;;;5011523;28;20022;-72
2022/01/18 08:04:00;;;;;;;38.57;11.57;;;6.10;99.90;;;;;;5007994;28;20037;-71
2022/01/18 08:06:26;;;;;;;27.70;10.20;;;6.20;99.90;;;;;;5008670;28;20439;-71
2022/01/18 08:08:52;;;;;;;29.57;11.00;;;;;;;;;;5010778;28;20483;-71
2022/01/18 08:11:17;;;;;;;25.80;11.40;;;6.10;99.90;;;;;;5009397;28;20093;-72
2022/01/18 08:13:47;;;;;;;48.10;13.23;;;6.30;99.90;;;;;;5008480;28;20022;-71
2022/01/18 08:19:00;;;;;;;27.43;8.53;;;6.30;99.90;;;;;;5008394;28;20038;-73
2022/01/18 08:21:26;;;;;;;41.23;10.40;;;6.10;99.90;;;;;;5008366;28;20030;-72
2022/01/18 08:23:52;;;;;;;33.20;10.47;;;6.20;99.90;;;;;;5008511;28;20053;-72
2022/01/18 08:26:18;;;;;;;41.13;10.37;;;;;;;;;;5020870;28;20042;-72
2022/01/18 08:28:44;;;;;;;42.40;9.67;;;6.20;99.90;;;;;;5011160;28;20505;-72
2022/01/18 08:31:10;;;;;;;97.00;12.77;;;6.20;99.90;;;;;;5009248;28;20109;-72
2022/01/18 08:33:35;;;;;;;54.70;10.97;;;6.30;99.90;;;;;;5007964;28;20034;-72
2022/01/18 08:36:04;;;;;;;62.37;11.77;;;6.00;99.90;;;;;;5008821;28;20041;-72
2022/01/18 08:38:30;;;;;;;61.63;13.20;;;6.00;99.90;;;;;;5008307;28;20518;-72
2022/01/18 08:40:58;;;;;;;71.77;11.77;;;;;;;;;;5008620;28;20029;-72
2022/01/18 08:43:24;;;;;;;89.07;12.47;;;6.00;99.90;;;;;;5008541;28;20026;-72
2022/01/18 08:45:49;;;;;;;51.67;9.83;;;5.90;99.90;;;;;;5008130;28;20038;-73
2022/01/18 08:48:15;;;;;;;22.20;7.23;;;5.90;99.90;;;;;;5008374;28;20269;-72
2022/01/18 08:50:41;;;;;;;119.33;13.83;;;;;;;;;;5010815;28;20042;-72
2022/01/18 08:53:07;;;;;;;28.60;9.20;;;;;;;;;;5008804;28;20042;-72
2022/01/18 08:55:34;;;;;;;81.80;11.20;;;5.90;99.90;;;;;;5008168;28;20432;-73
2022/01/18 08:58:03;;;;;;;43.37;8.87;;;6.00;99.90;;;;;;4990673;28;20187;-72
2022/01/18 09:00:30;;;;;;;81.80;11.70;;;5.90;99.90;;;;;;5007934;28;20041;-73
2022/01/18 09:02:56;;;;;;;66.80;10.87;;;5.80;99.90;;;;;;5008021;28;20026;-73
2022/01/18 09:05:23;;;;;;;47.17;10.47;;;;;;;;;;5008572;28;20095;-73
2022/01/18 09:07:50;;;;;;;43.87;10.50;;;5.80;99.90;;;;;;5008048;28;20040;-73
2022/01/18 09:10:16;;;;;;;47.60;10.80;;;5.80;99.90;;;;;;5008645;28;20030;-72
2022/01/18 09:12:42;;;;;;;115.27;13.83;;;;;;;;;;5007956;28;20050;-72
2022/01/18 09:15:10;;;;;;;84.50;11.60;;;5.80;99.90;;;;;;5007734;28;20101;-72
2022/01/18 09:17:37;;;;;;;117.10;14.27;;;5.90;99.90;;;;;;5023814;28;20037;-72
2022/01/18 09:20:06;;;;;;;62.67;11.53;;;5.70;99.90;;;;;;5010136;28;20029;-73
2022/01/18 09:22:38;;;;;;;51.97;9.70;;;5.90;99.90;;;;;;5027594;28;20033;-72
2022/01/18 09:25:06;;;;;;;61.20;10.90;;;5.90;99.90;;;;;;5010051;28;20018;-72
2022/01/18 09:27:32;;;;;;;76.77;11.70;;;6.00;99.90;;;;;;5007508;28;20069;-72
2022/01/18 09:29:58;;;;;;;35.57;10.23;;;;;;;;;;5007520;28;20068;-72
2022/01/18 09:32:24;;;;;;;38.97;10.47;;;6.10;99.90;;;;;;5010657;28;20137;-72
2022/01/18 09:34:50;;;;;;;34.13;8.70;;;6.10;99.90;;;;;;5011413;28;20446;-72
2022/01/18 09:37:16;;;;;;;60.40;10.97;;;6.20;99.90;;;;;;5019580;28;20329;-73
2022/01/18 09:39:41;;;;;;;71.73;11.40;;;;;;;;;;5010905;28;20069;-72
2022/01/18 09:42:10;;;;;;;41.50;11.37;;;6.30;99.90;;;;;;5011445;28;20082;-71
2022/01/18 09:44:36;;;;;;;52.57;9.43;;;;;;;;;;5010395;28;20033;-71
2022/01/18 09:47:03;;;;;;;62.97;13.13;;;6.30;99.90;;;;;;5011053;28;20038;-71
2022/01/18 09:49:29;;;;;;;55.90;12.20;;;6.30;99.90;;;;;;5013141;28;20037;-71
2022/01/18 09:51:54;;;;;;;35.17;9.97;;;6.20;99.90;;;;;;5006353;28;20118;-72
2022/01/18 09:54:20;;;;;;;73.67;10.53;;;;;;;;;;5008888;28;20725;-73
2022/01/18 09:56:46;;;;;;;65.97;9.67;;;;;;;;;;5010564;28;20120;-72
2022/01/18 09:59:12;;;;;;;41.13;7.93;;;6.20;99.90;;;;;;5011162;28;20490;-72
2022/01/18 10:01:38;;;;;;;35.07;9.70;;;6.10;99.90;;;;;;4993377;28;20180;-72
2022/01/18 10:04:21;;;;;;;41.97;7.67;;;6.10;99.90;;;;;;5011176;28;20044;-72
2022/01/18 10:06:49;;;;;;;36.33;7.20;;;6.10;99.90;;;;;;4992785;28;20558;-73
2022/01/18 10:09:17;;;;;;;38.83;7.53;;;6.00;99.90;;;;;;5011329;28;20165;-72
2022/01/18 10:12:13;;;;;;;39.47;6.10;;;6.00;99.90;;;;;;5008198;28;20034;-73
2022/01/18 10:14:55;;;;;;;38.93;8.53;;;6.00;99.90;;;;;;5027911;28;20099;-72
2022/01/18 10:17:37;;;;;;;26.90;7.13;;;6.00;99.90;;;;;;5030543;28;20057;-72
2022/01/18 10:20:06;;;;;;;24.23;6.87;;;6.10;99.90;;;;;;5006941;28;20038;-72
2022/01/18 10:22:40;;;;;;;29.37;7.27;;;6.00;99.90;;;;;;5000794;28;20050;-72
2022/01/18 10:25:20;;;;;;;47.07;8.63;;;6.10;99.90;;;;;;4994976;28;20568;-73
2022/01/18 10:27:49;;;;;;;31.87;6.50;;;7.80;99.90;;;;;;5002870;28;20108;-72
2022/01/18 10:30:22;;;;;;;15.67;6.33;;;6.20;99.90;;;;;;5000634;28;20475;-73
2022/01/18 10:33:07;;;;;;;16.87;6.43;;;6.20;99.90;;;;;;4999141;28;20121;-71
2022/01/18 10:35:33;;;;;;;18.93;6.53;;;6.20;99.90;;;;;;5007771;28;20509;-72
2022/01/18 10:37:58;;;;;;;38.07;8.33;;;6.20;99.90;;;;;;5012047;28;20041;-71
2022/01/18 10:40:26;;;;;;;24.40;6.90;;;;;;;;;;5009914;28;20053;-71
2022/01/18 10:42:53;;;;;;;18.13;6.10;;;;;;;;;;5007497;28;20072;-71
2022/01/18 10:45:31;;;;;;;21.23;6.00;;;6.20;99.90;;;;;;5010268;28;20025;-72
2022/01/18 10:48:09;;;;;;;30.43;7.63;;;6.30;99.90;;;;;;5020021;28;20036;-71
2022/01/18 10:50:38;;;;;;;19.03;8.13;;;6.20;99.90;;;;;;5028706;28;20044;-71
2022/01/18 10:53:30;;;;;;;47.03;7.90;;;6.20;99.90;;;;;;5029674;28;20036;-71
2022/01/18 10:56:16;;;;;;;22.77;6.63;;;6.30;99.90;;;;;;5018231;28;20080;-71
2022/01/18 10:58:57;;;;;;;20.43;6.73;;;6.20;99.90;;;;;;5008950;28;20022;-72
2022/01/18 11:01:23;;;;;;;25.00;7.07;;;;;;;;;;4992052;28;20033;-73
2022/01/18 11:04:09;;;;;;;22.23;6.50;;;6.30;99.90;;;;;;5015034;28;20050;-71
2022/01/18 11:06:36;;;;;;;27.43;8.10;;;6.60;99.90;;;;;;5009913;28;20441;-71
2022/01/18 11:09:14;;;;;;;44.27;9.30;;;6.30;99.90;;;;;;4994306;28;20121;-70
2022/01/18 11:11:44;;;;;;;25.03;7.97;;;6.30;99.90;;;;;;5010104;28;20025;-70
2022/01/18 11:14:11;;;;;;;25.60;6.93;;;;;;;;;;4999215;28;20171;-70
2022/01/18 11:16:41;;;;;;;49.70;9.23;;;;;;;;;;5009148;28;20041;-70
2022/01/18 11:19:30;;;;;;;13.67;6.73;;;6.20;99.90;;;;;;5011651;28;20033;-71
2022/01/18 11:21:59;;;;;;;24.33;8.37;;;6.40;99.90;;;;;;4999106;28;20026;-70
2022/01/18 11:24:25;;;;;;;20.30;8.17;;;6.50;99.90;;;;;;5009238;28;20522;-70
2022/01/18 11:26:51;;;;;;;37.67;9.30;;;6.50;99.90;;;;;;5008316;28;20026;-70
2022/01/18 11:29:19;;;;;;;22.33;9.50;;;6.50;99.90;;;;;;5009629;28;20030;-70
2022/01/18 11:31:47;;;;;;;38.20;11.53;;;6.50;99.90;;;;;;5008800;28;20024;-71
2022/01/18 11:34:23;;;;;;;27.80;10.03;;;6.70;99.90;;;;;;5012847;28;20547;-71
2022/01/18 11:36:52;;;;;;;31.47;10.50;;;6.60;99.90;;;;;;5017464;28;20045;-71
2022/01/18 11:39:18;;;;;;;24.20;10.47;;;6.50;99.90;;;;;;5009272;28;20045;-71
2022/01/18 11:41:44;;;;;;;27.60;11.07;;;6.70;99.90;;;;;;4989973;28;20022;-71
2022/01/18 11:44:17;;;;;;;32.57;10.70;;;6.70;99.90;;;;;;4989873;28;20361;-71
2022/01/18 11:46:52;;;;;;;23.02;9.82;;;6.70;99.90;;;;;;4987949;28;20042;-71
2022/01/18 11:49:23;;;;;;;28.33;10.43;;;6.60;99.90;;;;;;5012130;28;20037;-71
2022/01/18 11:51:59;;;;;;;20.47;9.23;;;6.50;99.90;;;;;;4991285;28;20033;-71
2022/01/18 11:57:23;;;;;;;25.73;8.37;;;6.50;99.90;;;;;;5019924;28;20425;-71
2022/01/18 12:00:08;;;;;;;30.80;9.20;;;6.50;99.90;;;;;;4989115;28;20029;-71
2022/01/18 12:02:40;;;;;;;28.77;11.33;;;6.60;99.90;;;;;;4989246;28;20030;-72
2022/01/18 12:05:16;;;;;;;21.67;9.03;;;6.40;99.90;;;;;;5006619;28;20033;-73
2022/01/18 12:07:44;;;;;;;19.70;9.60;;;;;;;;;;4990507;28;20446;-73
2022/01/18 12:10:28;;;;;;;24.50;10.80;;;6.50;99.90;;;;;;5008587;28;20022;-72
2022/01/18 12:12:55;;;;;;;22.25;10.52;;;6.50;99.90;;;;;;5017276;28;20052;-71
2022/01/18 12:15:23;;;;;;;25.80;9.87;;;6.50;99.90;;;;;;5021437;28;20108;-71
2022/01/18 12:17:54;;;;;;;30.17;10.97;;;6.60;99.90;;;;;;5008196;28;20037;-71
2022/01/18 12:20:35;;;;;;;24.63;10.07;;;6.50;99.90;;;;;;5008559;28;20093;-71
2022/01/18 12:23:12;;;;;;;25.73;10.63;;;6.60;99.90;;;;;;5008625;28;20516;-71
2022/01/18 12:26:15;;;;;;;18.43;9.73;;;6.60;99.90;;;;;;5017998;28;20382;-71
2022/01/18 12:34:33;;;;;;;22.23;10.30;;;6.40;99.90;;;;;;5004627;28;20399;-71
2022/01/18 12:39:55;;;;;;;26.87;11.00;;;6.80;99.90;;;;;;5002299;28;20125;-71
2022/01/18 12:45:07;;;;;;;24.13;11.73;;;6.80;99.90;;;;;;5008486;28;20324;-71
2022/01/18 12:47:55;;;;;;;23.50;11.40;;;6.80;99.90;;;;;;5007419;28;20042;-71
2022/01/18 12:50:37;;;;;;;26.70;11.77;;;6.80;99.90;;;;;;5005629;28;20018;-71
2022/01/18 12:53:11;;;;;;;25.10;11.17;;;6.50;99.90;;;;;;5013808;28;20095;-71
2022/01/18 12:55:44;;;;;;;28.38;10.85;;;7.00;99.90;;;;;;5009832;28;20029;-71
2022/01/18 12:58:34;;;;;;;21.27;10.48;;;7.10;99.90;;;;;;5001869;28;20378;-72
2022/01/18 13:01:06;;;;;;;25.70;11.13;;;6.70;99.90;;;;;;5007417;28;20459;-69
2022/01/18 13:03:46;;;;;;;31.70;11.97;;;7.10;99.90;;;;;;5007543;28;20026;-72
2022/01/18 13:06:15;;;;;;;21.93;11.03;;;7.00;99.90;;;;;;5009168;28;20022;-71
2022/01/18 13:08:50;;;;;;;31.43;11.67;;;7.10;99.90;;;;;;5021513;28;20471;-71
2022/01/18 13:11:18;;;;;;;30.63;12.70;;;7.20;99.90;;;;;;5032066;28;20033;-71
2022/01/18 13:13:52;;;;;;;24.10;12.10;;;7.30;99.90;;;;;;5023326;28;20026;-72
2022/01/18 13:26:55;;;;;;;32.20;13.43;;;7.50;99.90;;;;;;5012197;28;20550;-71
2022/01/18 13:29:24;;;;;;;29.17;11.87;;;7.40;99.90;;;;;;5012034;28;20221;-71
2022/01/18 13:32:11;;;;;;;35.10;12.37;;;7.70;99.90;;;;;;5011524;28;20101;-71
2022/01/18 13:34:38;;;;;;;25.63;11.63;;;7.50;99.90;;;;;;5011320;28;20072;-72
2022/01/18 13:37:07;;;;;;;34.70;13.57;;;7.60;99.90;;;;;;5010954;28;20368;-71
2022/01/18 13:39:50;;;;;;;28.87;12.60;;;7.60;99.90;;;;;;5011621;28;20100;-71
2022/01/18 13:42:22;;;;;;;35.43;15.00;;;7.60;99.90;;;;;;5031711;28;20028;-71
2022/01/18 13:45:06;;;;;;;24.03;11.40;;;8.00;99.90;;;;;;5015131;28;20080;-72
2022/01/18 13:47:49;;;;;;;32.15;13.25;;;7.60;99.90;;;;;;5009855;28;20042;-71
2022/01/18 13:50:34;;;;;;;27.97;12.20;;;7.50;99.90;;;;;;5011598;28;20537;-71
2022/01/18 13:53:02;;;;;;;34.08;13.20;;;7.60;99.90;;;;;;5008965;28;20025;-70
2022/01/18 13:55:29;;;;;;;33.87;11.83;;;7.70;99.90;;;;;;4995534;28;20036;-72
2022/01/18 13:57:57;;;;;;;33.13;10.40;;;7.70;99.90;;;;;;5010581;28;20398;-71
2022/01/18 14:00:24;;;;;;;31.50;10.77;;;7.70;99.90;;;;;;5009660;28;20038;-71
2022/01/18 14:02:52;;;;;;;39.53;8.80;;;7.70;99.90;;;;;;4992756;28;20478;-71
2022/01/18 14:05:21;;;;;;;28.37;8.07;;;;;;;;;;5001487;28;20026;-72
2022/01/18 14:07:47;;;;;;;29.60;7.40;;;;;;;;;;5002569;28;20041;-73
2022/01/18 14:10:13;;;;;;;32.00;8.70;;;;;;;;;;5011872;28;20036;-72
2022/01/18 14:12:38;;;;;;;26.73;8.63;;;7.80;99.90;;;;;;5029791;28;20236;-72
2022/01/18 14:15:05;;;;;;;28.03;8.53;;;;;;;;;;5013044;28;20052;-72
2022/01/18 14:17:30;;;;;;;31.93;8.87;;;7.90;99.90;;;;;;5010222;28;20057;-72
2022/01/18 14:20:08;;;;;;;30.57;9.87;;;7.80;99.90;;;;;;5003624;28;20100;-72
2022/01/18 14:22:36;;;;;;;29.57;9.13;;;7.80;99.90;;;;;;5001876;28;20509;-71
2022/01/18 14:25:05;;;;;;;29.70;9.70;;;7.80;99.90;;;;;;4999398;28;20112;-71
2022/01/18 14:27:39;;;;;;;29.00;9.03;;;7.70;99.90;;;;;;4995404;28;20394;-71
2022/01/18 14:30:04;;;;;;;30.83;9.48;;;7.60;99.90;;;;;;5010384;28;20026;-72
2022/01/18 14:32:33;;;;;;;29.93;10.57;;;7.80;99.90;;;;;;4992523;28;20088;-72
2022/01/18 14:35:25;;;;;;;26.13;8.70;;;7.80;99.90;;;;;;5007362;28;20100;-71
2022/01/18 14:38:06;;;;;;;35.57;9.77;;;7.80;99.90;;;;;;5000403;28;20039;-71
2022/01/18 14:40:42;;;;;;;23.73;8.03;;;7.70;99.90;;;;;;5019636;28;20037;-71
2022/01/18 14:43:13;;;;;;;17.47;8.47;;;8.00;99.90;;;;;;5010300;28;20026;-71